Time;durP1;ratioP1;P1;durP2;ratioP2;P2;SDS_P1;SDS_P2;PMS_P1;PMS_P2;Temp;Humidity;BMP_temperature;BMP_pressure;BME280_temperature;BME280_humidity;BME280_pressure;Samples;Min_cycle;Max_cycle;Signal;HPM_P1;HPM_P2
2022/03/31 00:01:36;;;;;;;6.00;1.67;;;;;;;;;;5068754;28;20036;-64
2022/03/31 00:04:11;;;;;;;2.78;1.58;;;;;;;;;;5067300;28;20053;-64
2022/03/31 00:06:57;;;;;;;4.50;1.70;;;;;;;;;;5070160;28;20170;-64
2022/03/31 00:09:30;;;;;;;4.55;1.85;;;;;;;;;;5069951;28;20048;-64
2022/03/31 00:12:05;;;;;;;2.28;1.52;;;;;;;;;;5070109;28;20055;-65
2022/03/31 00:14:31;;;;;;;7.20;2.08;;;;;;;;;;5070395;28;20440;-66
2022/03/31 00:16:59;;;;;;;8.05;1.90;;;;;;;;;;5052763;28;20479;-64
2022/03/31 00:19:26;;;;;;;4.75;1.80;;;;;;;;;;5069895;28;20037;-64
2022/03/31 00:21:57;;;;;;;8.85;1.65;;;;;;;;;;5070174;28;20033;-64
2022/03/31 00:24:26;;;;;;;4.40;1.55;;;;;;;;;;5051210;28;20090;-64
2022/03/31 00:26:59;;;;;;;7.93;1.70;;;;;;;;;;5069915;28;20040;-64
2022/03/31 00:29:28;;;;;;;;;;;;;;;;;;5070719;28;20063;-64
2022/03/31 00:32:01;;;;;;;3.33;1.55;;;;;;;;;;5069251;28;19928;-64
2022/03/31 00:34:48;;;;;;;4.15;1.52;;;;;;;;;;5069773;28;20048;-64
2022/03/31 00:37:23;;;;;;;5.13;1.88;;;;;;;;;;5069265;28;20040;-64
2022/03/31 00:39:49;;;;;;;5.95;1.90;;;;;;;;;;5069372;28;20083;-64
2022/03/31 00:42:18;;;;;;;3.15;1.92;;;;;;;;;;5069248;28;20037;-65
2022/03/31 00:44:53;;;;;;;6.20;1.85;;;;;;;;;;5050768;28;20044;-65
2022/03/31 00:47:28;;;;;;;3.75;1.48;;;;;;;;;;5051102;28;20051;-64
2022/03/31 00:49:57;;;;;;;5.28;1.75;;;;;;;;;;5050560;28;20036;-64
2022/03/31 00:52:26;;;;;;;5.45;1.70;;;;;;;;;;5069166;28;20097;-64
2022/03/31 00:55:04;;;;;;;5.53;1.60;;;;;;;;;;5067856;28;20063;-64
2022/03/31 00:57:36;;;;;;;4.70;1.85;;;;;;;;;;5069564;28;20040;-64
2022/03/31 01:00:10;;;;;;;4.15;1.58;;;;;;;;;;5068504;28;20037;-64
2022/03/31 01:02:40;;;;;;;3.58;1.58;;;;;;;;;;5068891;28;20397;-64
2022/03/31 01:05:09;;;;;;;4.13;1.70;;;;;;;;;;5068699;28;20041;-64
2022/03/31 01:07:36;;;;;;;2.70;1.70;;;;;;;;;;5068289;28;20040;-64
2022/03/31 01:10:05;;;;;;;5.07;1.58;;;;;;;;;;5046540;28;20049;-64
2022/03/31 01:12:31;;;;;;;6.57;1.70;;;;;;;;;;5047482;28;20040;-64
2022/03/31 01:15:10;;;;;;;5.22;2.05;;;;;;;;;;5047747;28;20044;-64
2022/03/31 01:17:43;;;;;;;5.85;2.10;;;;;;;;;;5048051;28;20089;-64
2022/03/31 01:20:19;;;;;;;7.00;2.30;;;;;;;;;;5047938;28;20492;-64
2022/03/31 01:22:53;;;;;;;7.85;2.38;;;;;;;;;;5047942;28;20039;-64
2022/03/31 01:25:19;;;;;;;6.25;2.53;;;;;;;;;;5047976;28;20087;-64
2022/03/31 01:27:49;;;;;;;8.43;3.13;;;;;;;;;;5028589;28;20036;-64
2022/03/31 01:30:16;;;;;;;6.43;2.55;;;;;;;;;;5048131;28;20148;-64
2022/03/31 01:32:46;;;;;;;3.58;2.30;;;;;;;;;;5047894;28;20063;-64
2022/03/31 01:35:14;;;;;;;5.68;2.13;;;;;;;;;;5048134;28;20656;-64
2022/03/31 01:37:54;;;;;;;6.35;2.50;;;;;;;;;;5047451;28;20136;-64
2022/03/31 01:43:20;;;;;;;9.18;3.00;;;;;;;;;;5047505;28;20033;-64
2022/03/31 01:46:09;;;;;;;9.43;3.50;;;;;;;;;;5046332;28;20064;-64
2022/03/31 01:48:39;;;;;;;5.00;2.60;;;;;;;;;;5045375;28;20044;-64
2022/03/31 01:51:14;;;;;;;7.13;2.63;;;;;;;;;;5031264;28;20045;-64
2022/03/31 01:53:54;;;;;;;8.10;2.22;;;;;;;;;;5048514;28;20485;-64
2022/03/31 01:56:23;;;;;;;5.15;2.10;;;;;;;;;;5048510;28;20049;-64
2022/03/31 01:59:03;;;;;;;4.47;1.73;;;;;;;;;;5048227;28;20049;-64
2022/03/31 02:01:37;;;;;;;4.85;1.77;;;;;;;;;;5047841;28;20120;-64
2022/03/31 02:04:12;;;;;;;4.15;2.00;;;;;;;;;;5047646;28;20492;-64
2022/03/31 02:06:41;;;;;;;6.18;1.88;;;;;;;;;;5047886;28;20049;-64
2022/03/31 02:09:07;;;;;;;5.47;1.80;;;;;;;;;;5055175;28;20048;-64
2022/03/31 02:11:37;;;;;;;5.20;1.90;;;;;;;;;;5067669;28;20047;-64
2022/03/31 02:14:19;;;;;;;2.92;1.80;;;;;;;;;;5067875;28;20049;-64
2022/03/31 02:16:45;;;;;;;6.38;2.20;;;;;;;;;;5066390;28;20123;-64
2022/03/31 02:19:21;;;;;;;3.58;1.85;;;;;;;;;;5067906;28;20079;-64
2022/03/31 02:21:50;;;;;;;8.10;2.05;;;;;;;;;;5067956;28;20119;-66
2022/03/31 02:24:27;;;;;;;7.13;2.00;;;;;;;;;;5067590;28;20064;-64
2022/03/31 02:27:16;;;;;;;3.60;2.00;;;;;;;;;;5068386;28;20036;-65
2022/03/31 02:29:46;;;;;;;5.40;1.83;;;;;;;;;;5050614;28;20055;-64
2022/03/31 02:32:18;;;;;;;8.82;1.80;;;;;;;;;;5068223;28;20062;-64
2022/03/31 02:34:58;;;;;;;2.60;1.58;;;;;;;;;;5068055;28;20166;-64
2022/03/31 02:37:27;;;;;;;7.70;2.17;;;;;;;;;;5068523;28;20096;-64
2022/03/31 02:40:11;;;;;;;4.53;1.85;;;;;;;;;;5051962;28;20063;-64
2022/03/31 02:42:46;;;;;;;7.22;1.85;;;;;;;;;;5067741;28;20042;-64
2022/03/31 02:45:15;;;;;;;4.35;1.40;;;;;;;;;;5066658;28;20041;-64
2022/03/31 02:47:50;;;;;;;6.32;1.75;;;;;;;;;;5068228;28;20056;-64
2022/03/31 02:50:28;;;;;;;3.78;1.13;;;;;;;;;;5067075;28;20063;-64
2022/03/31 02:55:44;;;;;;;4.80;2.08;;;;;;;;;;5067419;28;20041;-64
2022/03/31 02:58:10;;;;;;;3.92;1.65;;;;;;;;;;5067033;28;20045;-64
2022/03/31 03:00:37;;;;;;;9.82;2.22;;;;;;;;;;5067594;28;20040;-65
2022/03/31 03:03:08;;;;;;;6.03;2.20;;;;;;;;;;5067982;28;20111;-64
2022/03/31 03:05:45;;;;;;;5.97;1.90;;;;;;;;;;5067521;28;20109;-64
2022/03/31 03:08:16;;;;;;;5.13;1.58;;;;;;;;;;5065538;28;20079;-64
2022/03/31 03:10:43;;;;;;;7.53;2.05;;;;;;;;;;5047630;28;20412;-66
2022/03/31 03:13:27;;;;;;;6.55;1.88;;;;;;;;;;5048421;28;20406;-64
2022/03/31 03:15:56;;;;;;;5.05;2.17;;;;;;;;;;5052319;28;20343;-65
2022/03/31 03:18:31;;;;;;;5.78;2.47;;;;;;;;;;5050762;28;20363;-64
2022/03/31 03:20:57;;;;;;;4.43;2.00;;;;;;;;;;5051483;28;20033;-64
2022/03/31 03:23:26;;;;;;;6.20;2.15;;;;;;;;;;5033364;28;20041;-64
2022/03/31 03:25:52;;;;;;;5.07;1.83;;;;;;;;;;5051179;28;20621;-64
2022/03/31 03:28:20;;;;;;;5.88;1.98;;;;;;;;;;5051446;28;20420;-64
2022/03/31 03:30:52;;;;;;;5.40;2.10;;;;;;;;;;5051061;28;20111;-65
2022/03/31 03:33:18;;;;;;;3.83;1.80;;;;;;;;;;5051478;28;20116;-64
2022/03/31 03:35:45;;;;;;;5.60;1.90;;;;;;;;;;5052171;28;20523;-64
2022/03/31 03:38:11;;;;;;;6.70;2.00;;;;;;;;;;5050873;28;20045;-64
2022/03/31 03:40:37;;;;;;;4.32;1.85;;;;;;;;;;5050649;28;20067;-66
2022/03/31 03:43:04;;;;;;;4.32;2.22;;;;;;;;;;5051117;28;20115;-64
2022/03/31 03:45:30;;;;;;;3.47;1.83;;;;;;;;;;5049528;28;20048;-64
2022/03/31 03:47:58;;;;;;;3.30;1.88;;;;;;;;;;5049310;28;20045;-65
2022/03/31 03:50:25;;;;;;;4.43;2.00;;;;;;;;;;5050124;28;20436;-64
2022/03/31 03:52:51;;;;;;;4.88;2.20;;;;;;;;;;5049818;28;20041;-64
2022/03/31 03:55:17;;;;;;;5.30;2.10;;;;;;;;;;5048806;28;20049;-64
2022/03/31 03:57:44;;;;;;;4.63;1.63;;;;;;;;;;5050125;28;20044;-64
2022/03/31 04:00:10;;;;;;;5.80;1.92;;;;;;;;;;5050918;28;20045;-64
2022/03/31 04:02:37;;;;;;;5.88;2.35;;;;;;;;;;5050360;28;20361;-64
2022/03/31 04:05:04;;;;;;;6.30;2.40;;;;;;;;;;5050696;28;20041;-64
2022/03/31 04:07:30;;;;;;;5.70;2.42;;;;;;;;;;5050413;28;20086;-65
2022/03/31 04:09:56;;;;;;;5.25;2.08;;;;;;;;;;5064030;28;20084;-65
2022/03/31 04:12:22;;;;;;;5.90;2.33;;;;;;;;;;5051082;28;20041;-65
2022/03/31 04:14:49;;;;;;;4.07;2.33;;;;;;;;;;5070413;28;20056;-65
2022/03/31 04:17:15;;;;;;;8.93;2.75;;;;;;;;;;5068793;28;20048;-65
2022/03/31 04:19:43;;;;;;;4.97;2.83;;;;;;;;;;5052566;28;20063;-65
2022/03/31 04:22:09;;;;;;;6.00;2.67;;;;;;;;;;5051963;28;20127;-66
2022/03/31 04:24:35;;;;;;;6.32;2.97;;;;;;;;;;5070426;28;20040;-66
2022/03/31 04:27:02;;;;;;;5.57;3.22;;;;;;;;;;5069966;28;20542;-66
2022/03/31 04:29:28;;;;;;;9.27;3.38;;;;;;;;;;5052300;28;20032;-66
2022/03/31 04:31:54;;;;;;;7.95;3.47;;;;;;;;;;5070556;28;20055;-65
2022/03/31 04:34:21;;;;;;;5.90;3.85;;;;;;;;;;5069664;28;20552;-65
2022/03/31 04:36:47;;;;;;;8.43;3.33;;;;;;;;;;5068845;28;20036;-65
2022/03/31 04:39:14;;;;;;;7.78;4.50;;;;;;;;;;5050339;28;20511;-66
2022/03/31 04:41:43;;;;;;;7.03;4.38;;;;;;;;;;5050993;28;20045;-65
2022/03/31 04:44:09;;;;;;;7.57;4.20;;;;;;;;;;5068923;28;20040;-65
2022/03/31 04:46:36;;;;;;;11.07;5.00;;;;;;;;;;5068472;28;20041;-65
2022/03/31 04:49:02;;;;;;;7.40;4.82;;;;;;;;;;5050982;28;20040;-65
2022/03/31 04:51:28;;;;;;;8.57;5.47;;;;;;;;;;5069154;28;20045;-65
2022/03/31 04:53:54;;;;;;;6.70;4.57;;;;;;;;;;5070233;28;20036;-65
2022/03/31 04:56:20;;;;;;;7.70;5.07;;;;;;;;;;5069214;28;20047;-65
2022/03/31 04:58:46;;;;;;;6.32;4.85;;;;;;;;;;5050808;28;20036;-65
2022/03/31 05:01:13;;;;;;;7.88;5.38;;;;;;;;;;5069067;28;20511;-66
2022/03/31 05:03:39;;;;;;;7.32;5.45;;;;;;;;;;5069194;28;21061;-65
2022/03/31 05:06:06;;;;;;;9.45;5.35;;;;;;;;;;5068894;28;20032;-67
2022/03/31 05:08:33;;;;;;;9.13;6.43;;;;;;;;;;5069014;28;20049;-65
2022/03/31 05:10:59;;;;;;;10.05;5.68;;;;;;;;;;5069188;28;20044;-65
2022/03/31 05:13:25;;;;;;;7.60;5.38;;;;;;;;;;5050812;28;20131;-65
2022/03/31 05:15:51;;;;;;;8.80;5.95;;;;;;;;;;5068155;28;20040;-66
2022/03/31 05:18:18;;;;;;;7.90;5.93;;;;;;;;;;5050343;28;20059;-65
2022/03/31 05:20:44;;;;;;;11.07;6.32;;;;;;;;;;5051498;28;20033;-65
2022/03/31 05:23:11;;;;;;;8.95;5.68;;;;;;;;;;5068797;28;20366;-65
2022/03/31 05:25:37;;;;;;;9.40;6.25;;;;;;;;;;5050982;28;20128;-65
2022/03/31 05:28:03;;;;;;;8.93;6.13;;;;;;;;;;5067819;28;20162;-65
2022/03/31 05:30:29;;;;;;;9.25;7.13;;;;;;;;;;5068270;28;20388;-65
2022/03/31 05:32:55;;;;;;;7.88;5.82;;;;;;;;;;5050262;28;20090;-65
2022/03/31 05:35:22;;;;;;;8.98;6.65;;;;;;;;;;5049837;28;20206;-65
2022/03/31 05:37:48;;;;;;;8.82;6.47;;;;;;;;;;5068254;28;20104;-65
2022/03/31 05:40:15;;;;;;;12.50;7.82;;;;;;;;;;5067240;28;20037;-65
2022/03/31 05:42:41;;;;;;;9.25;7.13;;;;;;;;;;5067961;28;20040;-65
2022/03/31 05:45:09;;;;;;;10.13;7.53;;;;;;;;;;5067537;28;20036;-65
2022/03/31 05:47:36;;;;;;;8.25;6.88;;;;;;;;;;5068801;28;20358;-65
2022/03/31 05:50:03;;;;;;;8.85;6.88;;;;;;;;;;5067691;28;20071;-65
2022/03/31 05:52:29;;;;;;;8.55;6.78;;;;;;;;;;5050129;28;20469;-65
2022/03/31 05:54:55;;;;;;;9.40;7.60;;;;;;;;;;5068951;28;20040;-67
2022/03/31 05:57:21;;;;;;;11.90;7.28;;;;;;;;;;5068239;28;20060;-65
2022/03/31 05:59:47;;;;;;;9.05;7.28;;;;;;;;;;5049608;28;20052;-67
2022/03/31 06:02:14;;;;;;;7.88;6.45;;;;;;;;;;5049696;28;20056;-65
2022/03/31 06:04:40;;;;;;;10.05;8.00;;;;;;;;;;5068217;28;20522;-65
2022/03/31 06:07:08;;;;;;;10.85;7.18;;;;;;;;;;5067022;28;20032;-65
2022/03/31 06:09:34;;;;;;;9.32;7.20;;;;;;;;;;5067511;28;20076;-65
2022/03/31 06:12:01;;;;;;;8.20;6.72;;;;;;;;;;5067737;28;20114;-65
2022/03/31 06:14:27;;;;;;;12.65;7.93;;;;;;;;;;5067812;28;20063;-65
2022/03/31 06:16:53;;;;;;;11.85;9.23;;;;;;;;;;5066695;28;20028;-65
2022/03/31 06:19:19;;;;;;;14.60;9.73;;;;;;;;;;5067184;28;20059;-65
2022/03/31 06:21:45;;;;;;;8.52;7.30;;;;;;;;;;5067497;28;20072;-65
2022/03/31 06:24:11;;;;;;;10.30;7.65;;;;;;;;;;5050271;28;20044;-65
2022/03/31 06:26:37;;;;;;;9.98;7.78;;;;;;;;;;5067948;28;20051;-65
2022/03/31 06:29:06;;;;;;;8.77;6.82;;;;;;;;;;5049847;28;20041;-64
2022/03/31 06:31:32;;;;;;;10.82;7.80;;;;;;;;;;5066853;28;20532;-64
2022/03/31 06:33:58;;;;;;;7.80;6.78;;;;;;;;;;5050691;28;20052;-64
2022/03/31 06:36:25;;;;;;;8.63;7.03;;;;;;;;;;5067826;28;20384;-65
2022/03/31 06:38:51;;;;;;;9.02;7.70;;;;;;;;;;5066866;28;20514;-65
2022/03/31 06:41:18;;;;;;;12.15;9.02;;;;;;;;;;5067301;28;20317;-65
2022/03/31 06:43:45;;;;;;;11.73;8.90;;;;;;;;;;5048216;28;20126;-65
2022/03/31 06:46:12;;;;;;;9.40;7.25;;;;;;;;;;5065678;28;20477;-65
2022/03/31 06:48:41;;;;;;;10.18;7.53;;;;;;;;;;5069028;28;20044;-65
2022/03/31 06:51:08;;;;;;;9.60;7.93;;;;;;;;;;5071954;28;20044;-65
2022/03/31 06:53:37;;;;;;;10.52;7.97;;;;;;;;;;5071811;28;20064;-65
2022/03/31 06:56:04;;;;;;;10.90;8.45;;;;;;;;;;5071966;28;20037;-65
2022/03/31 06:58:30;;;;;;;9.32;8.00;;;;;;;;;;5053533;28;20068;-65
2022/03/31 07:00:59;;;;;;;9.65;7.68;;;;;;;;;;5053257;28;20489;-65
2022/03/31 07:03:26;;;;;;;9.82;7.72;;;;;;;;;;5069415;28;20048;-65
2022/03/31 07:05:52;;;;;;;11.27;8.13;;;;;;;;;;5070696;28;20071;-65
2022/03/31 07:08:18;;;;;;;9.23;7.38;;;;;;;;;;5052309;28;20076;-65
2022/03/31 07:10:45;;;;;;;10.30;8.32;;;;;;;;;;5069482;28;20075;-65
2022/03/31 07:13:11;;;;;;;9.20;7.53;;;;;;;;;;5071545;28;20574;-65
2022/03/31 07:15:37;;;;;;;11.35;9.50;;;;;;;;;;5070485;28;20416;-67
2022/03/31 07:18:04;;;;;;;11.48;9.35;;;;;;;;;;5051474;28;20044;-66
2022/03/31 07:20:30;;;;;;;13.65;9.90;;;;;;;;;;5071356;28;20044;-65
2022/03/31 07:22:56;;;;;;;12.75;9.70;;;;;;;;;;5070256;28;20361;-65
2022/03/31 07:25:23;;;;;;;10.30;8.63;;;;;;;;;;5071305;28;20086;-65
2022/03/31 07:27:50;;;;;;;11.40;9.52;;;;;;;;;;5051826;28;20078;-65
2022/03/31 07:30:16;;;;;;;10.88;8.63;;;;;;;;;;5068625;28;20564;-64
2022/03/31 07:32:50;;;;;;;9.70;8.32;;;;;;;;;;5052553;28;20155;-65
2022/03/31 07:35:16;;;;;;;10.45;8.70;;;;;;;;;;5070523;28;20070;-65
2022/03/31 07:37:42;;;;;;;11.73;9.15;;;;;;;;;;5052022;28;20071;-65
2022/03/31 07:40:08;;;;;;;10.93;8.68;;;;;;;;;;5069116;28;20049;-65
2022/03/31 07:42:34;;;;;;;9.63;7.70;;;;;;;;;;5070675;28;20047;-65
2022/03/31 07:45:01;;;;;;;11.27;9.07;;;;;;;;;;5069754;28;20036;-65
2022/03/31 07:47:27;;;;;;;10.13;8.25;;;;;;;;;;5049678;28;20060;-65
2022/03/31 07:49:53;;;;;;;11.93;9.52;;;;;;;;;;5050064;28;20051;-65
2022/03/31 07:52:21;;;;;;;10.32;8.75;;;;;;;;;;5069835;28;20396;-66
2022/03/31 07:54:48;;;;;;;10.45;8.75;;;;;;;;;;5051468;28;20048;-66
2022/03/31 07:57:14;;;;;;;10.20;8.32;;;;;;;;;;5068862;28;20037;-66
2022/03/31 07:59:40;;;;;;;10.13;8.15;;;;;;;;;;5050729;28;20040;-66
2022/03/31 08:02:06;;;;;;;10.43;9.05;;;;;;;;;;5068386;28;21625;-66
2022/03/31 08:04:33;;;;;;;10.27;8.90;;;;;;;;;;5049247;28;20508;-65
2022/03/31 08:06:59;;;;;;;10.05;7.43;;;;;;;;;;5066091;28;20071;-65
2022/03/31 08:09:25;;;;;;;11.10;9.15;;;;;;;;;;5069311;28;20056;-65
2022/03/31 08:11:52;;;;;;;10.88;8.82;;;;;;;;;;5051587;28;20088;-65
2022/03/31 08:14:19;;;;;;;10.43;8.50;;;;;;;;;;5051634;28;20059;-65
2022/03/31 08:16:46;;;;;;;8.90;7.32;;;;;;;;;;5052437;28;20456;-65
2022/03/31 08:19:13;;;;;;;9.68;7.63;;;;;;;;;;5070632;28;20086;-66
2022/03/31 08:21:39;;;;;;;11.13;8.52;;;;;;;;;;5069940;28;20431;-66
2022/03/31 08:24:06;;;;;;;11.32;9.00;;;;;;;;;;5068941;28;20040;-66
2022/03/31 08:26:32;;;;;;;8.38;7.03;;;;;;;;;;5034920;28;20044;-66
2022/03/31 08:28:58;;;;;;;8.75;7.55;;;;;;;;;;5069687;28;20048;-66
2022/03/31 08:31:25;;;;;;;8.57;7.10;;;;;;;;;;5051339;28;20080;-66
2022/03/31 08:33:51;;;;;;;10.05;9.02;;;;;;;;;;5068691;28;20094;-66
2022/03/31 08:36:17;;;;;;;9.25;8.07;;;;;;;;;;5068384;28;21302;-66
2022/03/31 08:38:43;;;;;;;7.55;6.63;;;;;;;;;;5051064;28;20049;-66
2022/03/31 08:41:11;;;;;;;7.82;6.70;;;;;;;;;;5068566;28;20392;-66
2022/03/31 08:43:37;;;;;;;7.43;6.60;;;;;;;;;;5065964;28;20047;-66
2022/03/31 08:46:06;;;;;;;8.30;6.90;;;;;;;;;;5068670;28;20041;-66
2022/03/31 08:48:33;;;;;;;8.38;6.63;;;;;;;;;;5050227;28;20527;-67
2022/03/31 08:50:59;;;;;;;8.00;6.90;;;;;;;;;;5069216;28;20040;-67
2022/03/31 08:53:25;;;;;;;7.47;6.53;;;;;;;;;;5067233;28;20501;-66
2022/03/31 08:55:51;;;;;;;6.80;6.10;;;;;;;;;;5049664;28;20040;-66
2022/03/31 08:58:17;;;;;;;6.88;5.93;;;;;;;;;;5066205;28;20056;-67
2022/03/31 09:00:43;;;;;;;7.55;6.38;;;;;;;;;;5049234;28;20118;-66
2022/03/31 09:03:10;;;;;;;7.15;5.90;;;;;;;;;;5049021;28;20119;-66
2022/03/31 09:05:38;;;;;;;8.82;5.97;;;;;;;;;;5050625;28;20043;-66
2022/03/31 09:08:05;;;;;;;6.43;5.70;;;;;;;;;;5034613;28;20037;-66
2022/03/31 09:10:39;;;;;;;6.63;5.72;;;;;;;;;;5048305;28;20060;-66
2022/03/31 09:13:17;;;;;;;7.50;6.45;;;;;;;;;;5048056;28;20044;-68
2022/03/31 09:15:47;;;;;;;8.43;7.53;;;;;;;;;;5048167;28;20029;-68
2022/03/31 09:18:16;;;;;;;10.20;7.75;;;;;;;;;;5050431;28;20044;-67
2022/03/31 09:20:43;;;;;;;10.40;6.65;;;;;;;;;;5034300;28;20032;-68
2022/03/31 09:23:20;;;;;;;6.18;5.22;;;;;;;;;;5034170;28;20401;-67
2022/03/31 09:25:46;;;;;;;7.80;6.70;;;;;;;;;;5050130;28;20123;-67
2022/03/31 09:28:18;;;;;;;8.15;7.18;;;;;;;;;;5049684;28;20413;-68
2022/03/31 09:30:55;;;;;;;8.27;6.93;;;;;;;;;;5047478;28;20094;-67
2022/03/31 09:33:30;;;;;;;6.68;5.97;;;;;;;;;;5048095;28;20427;-67
2022/03/31 09:35:57;;;;;;;8.80;7.00;;;;;;;;;;5051093;28;20563;-67
2022/03/31 09:38:23;;;;;;;7.70;6.90;;;;;;;;;;5048917;28;20059;-67
2022/03/31 09:40:49;;;;;;;6.18;5.55;;;;;;;;;;5049675;28;20029;-67
2022/03/31 09:43:15;;;;;;;7.15;6.38;;;;;;;;;;5066923;28;20032;-67
2022/03/31 09:45:41;;;;;;;6.07;5.13;;;;;;;;;;5048798;28;20122;-67
2022/03/31 09:48:18;;;;;;;7.95;6.57;;;;;;;;;;5049384;28;20447;-67
2022/03/31 09:50:44;;;;;;;6.80;5.93;;;;;;;;;;5047846;28;20040;-67
2022/03/31 09:53:11;;;;;;;6.80;5.60;;;;;;;;;;5048732;28;20488;-67
2022/03/31 09:55:38;;;;;;;7.80;6.45;;;;;;;;;;5049322;28;21308;-67
2022/03/31 09:58:04;;;;;;;7.68;6.88;;;;;;;;;;5050353;28;20037;-67
2022/03/31 10:00:31;;;;;;;6.90;5.85;;;;;;;;;;5048957;28;20094;-67
2022/03/31 10:02:59;;;;;;;6.45;5.63;;;;;;;;;;5048400;28;20044;-67
2022/03/31 10:05:26;;;;;;;6.55;5.85;;;;;;;;;;5031282;28;20158;-67
2022/03/31 10:07:53;;;;;;;6.85;6.07;;;;;;;;;;5066350;28;20036;-67
2022/03/31 10:10:19;;;;;;;6.80;5.13;;;;;;;;;;5049498;28;20106;-68
2022/03/31 10:12:56;;;;;;;6.20;5.47;;;;;;;;;;5049068;28;20048;-68
2022/03/31 10:15:30;;;;;;;7.72;5.72;;;;;;;;;;5031769;28;20033;-67
2022/03/31 10:17:56;;;;;;;5.38;4.40;;;;;;;;;;5049060;28;20129;-67
2022/03/31 10:20:22;;;;;;;4.65;4.15;;;;;;;;;;5032379;28;20051;-68
2022/03/31 10:25:41;;;;;;;5.45;4.50;;;;;;;;;;5064468;28;20133;-68
2022/03/31 10:28:11;;;;;;;5.10;4.00;;;;;;;;;;5032078;28;20135;-68
2022/03/31 10:30:37;;;;;;;5.07;4.05;;;;;;;;;;5047947;28;20512;-68
2022/03/31 10:33:05;;;;;;;4.00;3.58;;;;;;;;;;5032655;28;20396;-68
2022/03/31 10:35:32;;;;;;;4.65;4.03;;;;;;;;;;5045772;28;20093;-68
2022/03/31 10:37:59;;;;;;;4.43;3.90;;;;;;;;;;5049139;28;20036;-68
2022/03/31 10:40:45;;;;;;;4.85;3.97;;;;;;;;;;5049654;28;20039;-69
2022/03/31 10:43:24;;;;;;;4.80;3.80;;;;;;;;;;5047394;28;20119;-68
2022/03/31 10:45:54;;;;;;;4.25;3.38;;;;;;;;;;5047339;28;20071;-68
2022/03/31 10:48:21;;;;;;;4.55;3.50;;;;;;;;;;5048794;28;20040;-68
2022/03/31 10:50:48;;;;;;;4.45;3.45;;;;;;;;;;5047261;28;20048;-68
2022/03/31 10:53:14;;;;;;;4.53;3.50;;;;;;;;;;5047549;28;20044;-68
2022/03/31 10:55:43;;;;;;;4.57;3.72;;;;;;;;;;5048162;28;20144;-68
2022/03/31 10:58:20;;;;;;;4.90;3.70;;;;;;;;;;5048966;28;20040;-68
2022/03/31 11:00:46;;;;;;;4.10;3.50;;;;;;;;;;5048536;28;20044;-68
2022/03/31 11:03:16;;;;;;;4.10;3.38;;;;;;;;;;5048319;28;20527;-68
2022/03/31 11:05:42;;;;;;;4.15;3.45;;;;;;;;;;5065001;28;20369;-68
2022/03/31 11:08:08;;;;;;;4.25;3.47;;;;;;;;;;5048646;28;20455;-68
2022/03/31 11:10:41;;;;;;;4.65;4.10;;;;;;;;;;5042380;28;20053;-67
2022/03/31 11:13:08;;;;;;;5.10;4.20;;;;;;;;;;5038928;28;20099;-68
2022/03/31 11:15:34;;;;;;;5.53;3.92;;;;;;;;;;5039566;28;20500;-68
2022/03/31 11:18:01;;;;;;;4.55;3.70;;;;;;;;;;5038146;28;20095;-67
2022/03/31 11:20:27;;;;;;;5.00;3.75;;;;;;;;;;5045539;28;20112;-67
2022/03/31 11:22:55;;;;;;;4.43;3.45;;;;;;;;;;5036777;28;21263;-68
2022/03/31 11:25:22;;;;;;;4.57;3.65;;;;;;;;;;5041167;28;20041;-67
2022/03/31 11:27:49;;;;;;;3.80;3.15;;;;;;;;;;5045346;28;20041;-67
2022/03/31 11:30:20;;;;;;;4.45;3.00;;;;;;;;;;5045072;28;20071;-67
2022/03/31 11:32:48;;;;;;;3.50;3.08;;;;;;;;;;5041475;28;20083;-67
2022/03/31 11:35:18;;;;;;;4.50;3.63;;;;;;;;;;5044391;28;20041;-67
2022/03/31 11:37:49;;;;;;;4.60;3.55;;;;;;;;;;5046439;28;20053;-67
2022/03/31 11:40:19;;;;;;;3.90;3.15;;;;;;;;;;5043189;28;20124;-66
2022/03/31 11:42:46;;;;;;;4.18;2.90;;;;;;;;;;5045825;28;21748;-67
2022/03/31 11:45:22;;;;;;;3.95;3.38;;;;;;;;;;5024141;28;20033;-66
2022/03/31 11:47:55;;;;;;;4.00;3.25;;;;;;;;;;5041338;28;20052;-67
2022/03/31 11:50:21;;;;;;;6.35;3.95;;;;;;;;;;5040381;28;20111;-67
2022/03/31 11:52:48;;;;;;;4.30;3.33;;;;;;;;;;5029999;28;20449;-67
2022/03/31 11:55:15;;;;;;;5.10;4.00;;;;;;;;;;5039073;28;20053;-67
2022/03/31 11:57:50;;;;;;;5.68;4.50;;;;;;;;;;5021115;28;20038;-67
2022/03/31 12:00:17;;;;;;;5.65;4.20;;;;;;;;;;5024316;28;20055;-67
2022/03/31 12:02:43;;;;;;;4.35;3.55;;;;;;;;;;5038559;28;20064;-67
2022/03/31 12:05:15;;;;;;;4.55;3.47;;;;;;;;;;5043365;28;20037;-67
2022/03/31 12:07:41;;;;;;;6.47;5.20;;;;;;;;;;5045344;28;20377;-66
2022/03/31 12:10:07;;;;;;;6.45;5.22;;;;;;;;;;5046965;28;20052;-66
2022/03/31 12:12:33;;;;;;;6.55;4.95;;;;;;;;;;5052074;28;20090;-67
2022/03/31 12:15:00;;;;;;;7.88;5.07;;;;;;;;;;5052002;28;20043;-67
2022/03/31 12:17:26;;;;;;;9.45;5.20;;;;;;;;;;5052385;28;20048;-67
2022/03/31 12:19:52;;;;;;;5.95;5.00;;;;;;;;;;5052160;28;20045;-67
2022/03/31 12:22:18;;;;;;;4.43;3.40;;;;;;;;;;5052145;28;20044;-67
2022/03/31 12:24:49;;;;;;;8.70;4.07;;;;;;;;;;5052320;28;20040;-67
2022/03/31 12:27:16;;;;;;;5.03;3.85;;;;;;;;;;5052093;28;20052;-67
2022/03/31 12:29:43;;;;;;;5.70;4.55;;;;;;;;;;5035914;28;20074;-67
2022/03/31 12:32:10;;;;;;;5.13;3.90;;;;;;;;;;5052932;28;20052;-67
2022/03/31 12:34:56;;;;;;;6.28;4.57;;;;;;;;;;5052468;28;20126;-67
2022/03/31 12:37:32;;;;;;;9.10;5.57;;;;;;;;;;5052454;28;20093;-67
2022/03/31 12:39:59;;;;;;;8.02;5.40;;;;;;;;;;5052161;28;20032;-67
2022/03/31 12:42:26;;;;;;;8.23;5.85;;;;;;;;;;5052917;28;20044;-68
2022/03/31 12:44:52;;;;;;;9.73;5.97;;;;;;;;;;5052356;28;20041;-68
2022/03/31 12:47:20;;;;;;;8.23;5.95;;;;;;;;;;5034727;28;20040;-68
2022/03/31 12:49:46;;;;;;;9.70;6.45;;;;;;;;;;5052122;28;20100;-68
2022/03/31 12:52:12;;;;;;;12.40;6.78;;;;;;;;;;5051090;28;20037;-68
2022/03/31 12:54:41;;;;;;;8.40;6.38;;;;;;;;;;5052050;28;20076;-68
2022/03/31 12:57:07;;;;;;;7.70;5.13;;;;;;;;;;5051950;28;20045;-68
2022/03/31 12:59:34;;;;;;;7.65;5.70;;;;;;;;;;5051948;28;20048;-68
2022/03/31 13:02:08;;;;;;;8.50;5.90;;;;;;;;;;5051890;28;20033;-67
2022/03/31 13:04:35;;;;;;;7.63;5.60;;;;;;;;;;5052128;28;20093;-68
2022/03/31 13:07:04;;;;;;;5.97;4.85;;;;;;;;;;5035261;28;20033;-68
2022/03/31 13:09:30;;;;;;;6.43;4.65;;;;;;;;;;5051468;28;20044;-68
2022/03/31 13:11:56;;;;;;;8.02;5.22;;;;;;;;;;5051278;28;20098;-68
2022/03/31 13:14:23;;;;;;;7.40;5.38;;;;;;;;;;5052187;28;20055;-68
2022/03/31 13:16:50;;;;;;;6.18;5.05;;;;;;;;;;5034633;28;20048;-68
2022/03/31 13:19:16;;;;;;;7.05;5.47;;;;;;;;;;5035085;28;20052;-68
2022/03/31 13:21:42;;;;;;;6.90;5.20;;;;;;;;;;5052065;28;20137;-68
2022/03/31 13:24:08;;;;;;;7.25;4.93;;;;;;;;;;5051582;28;20035;-68
2022/03/31 13:26:36;;;;;;;6.70;5.07;;;;;;;;;;5051551;28;20120;-68
2022/03/31 13:29:03;;;;;;;6.63;5.30;;;;;;;;;;5051180;28;20051;-67
2022/03/31 13:31:29;;;;;;;7.53;5.38;;;;;;;;;;5051164;28;20048;-68
2022/03/31 13:33:55;;;;;;;7.25;6.05;;;;;;;;;;5051955;28;20435;-68
2022/03/31 13:36:21;;;;;;;6.85;5.50;;;;;;;;;;5030870;28;20040;-67
2022/03/31 13:38:47;;;;;;;8.00;6.47;;;;;;;;;;5067976;28;20134;-67
2022/03/31 13:41:13;;;;;;;7.15;5.97;;;;;;;;;;5048009;28;20473;-68
2022/03/31 13:43:39;;;;;;;8.18;5.90;;;;;;;;;;5050746;28;20036;-68
2022/03/31 13:46:06;;;;;;;8.25;5.80;;;;;;;;;;5050506;28;20465;-68
2022/03/31 13:48:32;;;;;;;7.03;5.68;;;;;;;;;;5033080;28;20135;-68
2022/03/31 13:50:58;;;;;;;8.23;6.32;;;;;;;;;;5050090;28;20054;-68
2022/03/31 13:56:09;;;;;;;7.00;5.97;;;;;;;;;;5049720;28;20044;-68
2022/03/31 14:01:20;;;;;;;8.32;7.00;;;;;;;;;;5045928;28;20127;-68
2022/03/31 14:03:47;;;;;;;9.27;6.65;;;;;;;;;;5046586;28;20043;-68
2022/03/31 14:06:15;;;;;;;8.60;7.22;;;;;;;;;;5048745;28;20058;-68
2022/03/31 14:08:42;;;;;;;9.65;7.57;;;;;;;;;;5046713;28;20051;-68
2022/03/31 14:11:09;;;;;;;8.00;7.13;;;;;;;;;;5048943;28;20105;-68
2022/03/31 14:13:35;;;;;;;7.85;6.95;;;;;;;;;;5050031;28;20051;-68
2022/03/31 14:16:03;;;;;;;9.32;7.07;;;;;;;;;;5032724;28;20385;-69
2022/03/31 14:18:33;;;;;;;12.15;8.32;;;;;;;;;;5049078;28;20400;-68
2022/03/31 14:21:00;;;;;;;10.35;8.43;;;;;;;;;;5048923;28;20093;-68
2022/03/31 14:23:26;;;;;;;11.18;8.35;;;;;;;;;;5049462;28;20052;-68
2022/03/31 14:25:58;;;;;;;13.27;9.57;;;;;;;;;;5049403;28;20060;-68
2022/03/31 14:28:35;;;;;;;14.38;10.77;;;;;;;;;;5049267;28;20084;-68
2022/03/31 14:31:02;;;;;;;14.32;10.85;;;;;;;;;;5049118;28;20048;-68
2022/03/31 14:33:28;;;;;;;14.02;11.10;;;;;;;;;;5047099;28;20040;-68
2022/03/31 14:35:55;;;;;;;17.73;13.73;;;;;;;;;;5048390;28;20174;-67
2022/03/31 14:38:25;;;;;;;24.70;18.33;;;;;;;;;;5033787;28;20123;-68
2022/03/31 14:40:51;;;;;;;28.20;20.30;;;;;;;;;;5032707;28;20049;-67
2022/03/31 14:43:18;;;;;;;24.80;18.83;;;;;;;;;;5048527;28;20045;-67
2022/03/31 14:45:45;;;;;;;28.40;19.80;;;;;;;;;;5048246;28;20086;-67
2022/03/31 14:48:11;;;;;;;29.77;21.40;;;;;;;;;;5047211;28;20075;-68
2022/03/31 14:50:41;;;;;;;32.22;21.58;;;;;;;;;;5048913;28;20048;-68
2022/03/31 14:53:07;;;;;;;32.70;22.35;;;;;;;;;;5030211;28;20036;-67
2022/03/31 14:55:33;;;;;;;32.05;22.50;;;;;;;;;;5049732;28;20613;-67
2022/03/31 14:57:59;;;;;;;31.90;22.50;;;;;;;;;;5048672;28;20044;-68
2022/03/31 15:00:26;;;;;;;34.22;21.50;;;;;;;;;;5047723;28;20048;-67
2022/03/31 15:02:52;;;;;;;31.83;21.83;;;;;;;;;;5047203;28;20110;-67